sensor_id;sensor_type;location;lat;lon;timestamp;pressure;altitude;pressure_sealevel;temperature;humidity
54948;BME280;41113;41.882;12.530;2022-07-23T00:00:24;101181.13;;;29.55;74.81
54948;BME280;41113;41.882;12.530;2022-07-23T00:02:49;101182.44;;;29.64;72.98
54948;BME280;41113;41.882;12.530;2022-07-23T00:05:14;101187.13;;;29.63;74.62
54948;BME280;41113;41.882;12.530;2022-07-23T00:07:40;101183.78;;;29.61;75.68
54948;BME280;41113;41.882;12.530;2022-07-23T00:10:05;101177.41;;;29.61;75.46
54948;BME280;41113;41.882;12.530;2022-07-23T00:12:31;101178.56;;;29.65;72.44
54948;BME280;41113;41.882;12.530;2022-07-23T00:14:56;101176.31;;;29.62;73.30
54948;BME280;41113;41.882;12.530;2022-07-23T00:17:21;101172.84;;;29.55;75.84
54948;BME280;41113;41.882;12.530;2022-07-23T00:19:47;101168.31;;;29.49;74.58
54948;BME280;41113;41.882;12.530;2022-07-23T00:22:12;101164.94;;;29.47;75.60
54948;BME280;41113;41.882;12.530;2022-07-23T00:24:37;101166.03;;;29.17;78.59
54948;BME280;41113;41.882;12.530;2022-07-23T00:27:02;101166.53;;;29.14;79.16
54948;BME280;41113;41.882;12.530;2022-07-23T00:29:28;101163.94;;;29.24;76.44
54948;BME280;41113;41.882;12.530;2022-07-23T00:31:54;101162.16;;;29.30;77.35
54948;BME280;41113;41.882;12.530;2022-07-23T00:34:19;101155.84;;;29.34;77.33
54948;BME280;41113;41.882;12.530;2022-07-23T00:36:44;101153.03;;;28.89;80.18
54948;BME280;41113;41.882;12.530;2022-07-23T00:39:10;101149.84;;;28.57;82.60
54948;BME280;41113;41.882;12.530;2022-07-23T00:41:35;101145.00;;;28.76;81.69
54948;BME280;41113;41.882;12.530;2022-07-23T00:44:20;101143.09;;;28.76;81.97
54948;BME280;41113;41.882;12.530;2022-07-23T00:46:53;101137.94;;;28.68;82.29
54948;BME280;41113;41.882;12.530;2022-07-23T00:49:19;101143.06;;;28.88;80.17
54948;BME280;41113;41.882;12.530;2022-07-23T00:51:45;101144.97;;;28.99;78.28
54948;BME280;41113;41.882;12.530;2022-07-23T00:54:10;101143.72;;;29.07;78.47
54948;BME280;41113;41.882;12.530;2022-07-23T00:56:36;101142.13;;;29.11;76.21
54948;BME280;41113;41.882;12.530;2022-07-23T00:59:01;101142.81;;;29.18;76.82
54948;BME280;41113;41.882;12.530;2022-07-23T01:01:27;101143.41;;;29.20;76.75
54948;BME280;41113;41.882;12.530;2022-07-23T01:03:52;101145.25;;;29.15;79.24
54948;BME280;41113;41.882;12.530;2022-07-23T01:06:17;101140.72;;;29.08;79.44
54948;BME280;41113;41.882;12.530;2022-07-23T01:08:43;101138.53;;;29.10;78.82
54948;BME280;41113;41.882;12.530;2022-07-23T01:11:08;101137.44;;;29.11;77.86
54948;BME280;41113;41.882;12.530;2022-07-23T01:13:33;101133.34;;;29.14;78.67
54948;BME280;41113;41.882;12.530;2022-07-23T01:15:59;101138.28;;;29.12;79.05
54948;BME280;41113;41.882;12.530;2022-07-23T01:18:24;101138.03;;;29.13;78.07
54948;BME280;41113;41.882;12.530;2022-07-23T01:20:49;101133.69;;;29.18;77.87
54948;BME280;41113;41.882;12.530;2022-07-23T01:23:15;101134.53;;;29.18;77.89
54948;BME280;41113;41.882;12.530;2022-07-23T01:25:47;101137.78;;;29.15;76.60
54948;BME280;41113;41.882;12.530;2022-07-23T01:28:12;101134.53;;;29.18;76.22
54948;BME280;41113;41.882;12.530;2022-07-23T01:30:37;101138.34;;;29.00;78.94
54948;BME280;41113;41.882;12.530;2022-07-23T01:33:03;101134.75;;;28.48;81.83
54948;BME280;41113;41.882;12.530;2022-07-23T01:35:28;101134.28;;;28.28;83.86
54948;BME280;41113;41.882;12.530;2022-07-23T01:37:53;101125.13;;;28.50;82.98
54948;BME280;41113;41.882;12.530;2022-07-23T01:40:19;101128.94;;;28.61;81.67
54948;BME280;41113;41.882;12.530;2022-07-23T01:42:44;101124.47;;;28.72;80.66
54948;BME280;41113;41.882;12.530;2022-07-23T01:45:09;101123.84;;;28.81;79.60
54948;BME280;41113;41.882;12.530;2022-07-23T01:47:35;101131.03;;;28.82;79.65
54948;BME280;41113;41.882;12.530;2022-07-23T01:50:00;101128.28;;;28.82;79.53
54948;BME280;41113;41.882;12.530;2022-07-23T01:52:25;101118.31;;;28.81;79.16
54948;BME280;41113;41.882;12.530;2022-07-23T01:54:50;101118.31;;;28.81;78.99
54948;BME280;41113;41.882;12.530;2022-07-23T01:57:16;101116.53;;;28.75;79.05
54948;BME280;41113;41.882;12.530;2022-07-23T01:59:41;101114.94;;;28.79;77.91
54948;BME280;41113;41.882;12.530;2022-07-23T02:02:07;101116.50;;;28.87;77.98
54948;BME280;41113;41.882;12.530;2022-07-23T02:04:32;101121.88;;;28.94;77.30
54948;BME280;41113;41.882;12.530;2022-07-23T02:07:01;101124.66;;;28.94;77.19
54948;BME280;41113;41.882;12.530;2022-07-23T02:09:26;101119.75;;;28.96;76.19
54948;BME280;41113;41.882;12.530;2022-07-23T02:11:52;101121.88;;;28.94;76.10
54948;BME280;41113;41.882;12.530;2022-07-23T02:14:17;101130.31;;;28.99;75.71
54948;BME280;41113;41.882;12.530;2022-07-23T02:16:42;101121.75;;;29.00;75.30
54948;BME280;41113;41.882;12.530;2022-07-23T02:19:08;101115.88;;;28.97;74.78
54948;BME280;41113;41.882;12.530;2022-07-23T02:21:33;101111.31;;;28.91;75.43
54948;BME280;41113;41.882;12.530;2022-07-23T02:23:58;101116.84;;;28.91;74.49
54948;BME280;41113;41.882;12.530;2022-07-23T02:26:23;101119.03;;;28.89;75.07
54948;BME280;41113;41.882;12.530;2022-07-23T02:28:48;101119.97;;;28.82;76.41
54948;BME280;41113;41.882;12.530;2022-07-23T02:31:14;101113.84;;;28.80;76.41
54948;BME280;41113;41.882;12.530;2022-07-23T02:33:39;101105.53;;;28.52;77.26
54948;BME280;41113;41.882;12.530;2022-07-23T02:36:04;101106.19;;;27.96;79.81
54948;BME280;41113;41.882;12.530;2022-07-23T02:38:30;101114.47;;;27.96;80.93
54948;BME280;41113;41.882;12.530;2022-07-23T02:40:55;101103.69;;;28.06;79.87
54948;BME280;41113;41.882;12.530;2022-07-23T02:43:20;101108.00;;;28.25;79.14
54948;BME280;41113;41.882;12.530;2022-07-23T02:45:46;101113.63;;;28.42;77.63
54948;BME280;41113;41.882;12.530;2022-07-23T02:48:11;101106.00;;;28.61;76.87
54948;BME280;41113;41.882;12.530;2022-07-23T02:50:37;101106.13;;;28.54;75.83
54948;BME280;41113;41.882;12.530;2022-07-23T02:53:03;101109.72;;;28.66;75.60
54948;BME280;41113;41.882;12.530;2022-07-23T02:55:28;101107.16;;;28.76;75.42
54948;BME280;41113;41.882;12.530;2022-07-23T02:57:53;101111.16;;;28.57;76.15
54948;BME280;41113;41.882;12.530;2022-07-23T03:00:18;101112.69;;;27.78;77.18
54948;BME280;41113;41.882;12.530;2022-07-23T03:02:44;101108.44;;;27.52;71.67
54948;BME280;41113;41.882;12.530;2022-07-23T03:05:09;101110.22;;;27.46;68.85
54948;BME280;41113;41.882;12.530;2022-07-23T03:07:35;101113.09;;;27.40;66.16
54948;BME280;41113;41.882;12.530;2022-07-23T03:10:00;101113.50;;;27.13;65.51
54948;BME280;41113;41.882;12.530;2022-07-23T03:12:25;101112.16;;;27.04;65.07
54948;BME280;41113;41.882;12.530;2022-07-23T03:14:51;101117.72;;;27.16;64.69
54948;BME280;41113;41.882;12.530;2022-07-23T03:17:16;101118.97;;;27.43;64.15
54948;BME280;41113;41.882;12.530;2022-07-23T03:19:41;101110.66;;;27.20;63.26
54948;BME280;41113;41.882;12.530;2022-07-23T03:22:07;101109.56;;;27.21;62.56
54948;BME280;41113;41.882;12.530;2022-07-23T03:24:32;101114.22;;;27.09;62.33
54948;BME280;41113;41.882;12.530;2022-07-23T03:27:16;101113.72;;;27.00;62.17
54948;BME280;41113;41.882;12.530;2022-07-23T03:29:41;101116.97;;;27.09;62.16
54948;BME280;41113;41.882;12.530;2022-07-23T03:32:06;101109.69;;;27.26;62.11
54948;BME280;41113;41.882;12.530;2022-07-23T03:34:32;101110.16;;;27.23;61.04
54948;BME280;41113;41.882;12.530;2022-07-23T03:36:57;101101.16;;;27.16;60.99
54948;BME280;41113;41.882;12.530;2022-07-23T03:39:22;101106.09;;;26.95;61.84
54948;BME280;41113;41.882;12.530;2022-07-23T03:41:48;101109.66;;;27.03;61.77
54948;BME280;41113;41.882;12.530;2022-07-23T03:44:13;101109.19;;;27.17;61.24
54948;BME280;41113;41.882;12.530;2022-07-23T03:46:38;101122.81;;;27.01;61.40
54948;BME280;41113;41.882;12.530;2022-07-23T03:49:03;101114.59;;;27.12;61.90
54948;BME280;41113;41.882;12.530;2022-07-23T03:51:29;101124.78;;;27.12;61.79
54948;BME280;41113;41.882;12.530;2022-07-23T03:53:54;101110.16;;;26.93;62.51
54948;BME280;41113;41.882;12.530;2022-07-23T03:56:20;101114.47;;;26.89;62.14
54948;BME280;41113;41.882;12.530;2022-07-23T03:58:45;101122.22;;;26.62;62.62
54948;BME280;41113;41.882;12.530;2022-07-23T04:01:11;101121.81;;;26.47;63.11
54948;BME280;41113;41.882;12.530;2022-07-23T04:03:37;101125.47;;;26.41;63.09
54948;BME280;41113;41.882;12.530;2022-07-23T04:06:02;101123.03;;;26.51;62.57
54948;BME280;41113;41.882;12.530;2022-07-23T04:08:27;101122.56;;;26.54;62.26
54948;BME280;41113;41.882;12.530;2022-07-23T04:10:52;101124.41;;;26.42;62.00
54948;BME280;41113;41.882;12.530;2022-07-23T04:13:18;101124.50;;;26.35;62.14
54948;BME280;41113;41.882;12.530;2022-07-23T04:15:43;101125.53;;;26.52;61.37
54948;BME280;41113;41.882;12.530;2022-07-23T04:18:08;101133.97;;;26.87;60.34
54948;BME280;41113;41.882;12.530;2022-07-23T04:20:33;101130.84;;;27.02;59.41
54948;BME280;41113;41.882;12.530;2022-07-23T04:22:59;101127.66;;;27.17;58.37
54948;BME280;41113;41.882;12.530;2022-07-23T04:25:24;101135.72;;;27.72;56.62
54948;BME280;41113;41.882;12.530;2022-07-23T04:27:49;101135.88;;;28.35;54.73
54948;BME280;41113;41.882;12.530;2022-07-23T04:30:14;101135.00;;;28.98;52.04
54948;BME280;41113;41.882;12.530;2022-07-23T04:32:40;101129.31;;;29.22;50.66
54948;BME280;41113;41.882;12.530;2022-07-23T04:35:05;101129.44;;;29.43;49.28
54948;BME280;41113;41.882;12.530;2022-07-23T04:37:30;101129.53;;;30.16;49.00
54948;BME280;41113;41.882;12.530;2022-07-23T04:39:56;101123.06;;;30.27;46.56
54948;BME280;41113;41.882;12.530;2022-07-23T04:42:21;101123.34;;;30.09;47.38
54948;BME280;41113;41.882;12.530;2022-07-23T04:44:46;101122.16;;;30.43;46.45
54948;BME280;41113;41.882;12.530;2022-07-23T04:47:12;101134.22;;;30.32;46.48
54948;BME280;41113;41.882;12.530;2022-07-23T04:49:37;101130.88;;;30.74;45.69
54948;BME280;41113;41.882;12.530;2022-07-23T04:52:02;101133.81;;;32.02;43.22
54948;BME280;41113;41.882;12.530;2022-07-23T04:54:27;101131.88;;;31.70;41.81
54948;BME280;41113;41.882;12.530;2022-07-23T04:56:53;101132.38;;;32.36;40.54
54948;BME280;41113;41.882;12.530;2022-07-23T04:59:18;101131.50;;;32.26;40.72
54948;BME280;41113;41.882;12.530;2022-07-23T05:01:43;101133.19;;;33.04;38.93
54948;BME280;41113;41.882;12.530;2022-07-23T05:04:08;101141.06;;;33.48;38.22
54948;BME280;41113;41.882;12.530;2022-07-23T05:06:34;101140.75;;;34.31;36.99
54948;BME280;41113;41.882;12.530;2022-07-23T05:08:59;101140.00;;;33.59;37.96
54948;BME280;41113;41.882;12.530;2022-07-23T05:11:24;101141.84;;;33.13;39.06
54948;BME280;41113;41.882;12.530;2022-07-23T05:13:50;101150.84;;;33.96;37.28
54948;BME280;41113;41.882;12.530;2022-07-23T05:16:16;101140.53;;;33.77;37.72
54948;BME280;41113;41.882;12.530;2022-07-23T05:18:41;101147.22;;;33.70;38.76
54948;BME280;41113;41.882;12.530;2022-07-23T05:21:07;101148.56;;;34.29;36.91
54948;BME280;41113;41.882;12.530;2022-07-23T05:23:32;101154.66;;;35.16;35.42
54948;BME280;41113;41.882;12.530;2022-07-23T05:25:57;101157.03;;;35.38;34.65
54948;BME280;41113;41.882;12.530;2022-07-23T05:28:22;101162.53;;;34.03;36.51
54948;BME280;41113;41.882;12.530;2022-07-23T05:30:48;101156.09;;;34.28;36.42
54948;BME280;41113;41.882;12.530;2022-07-23T05:33:13;101159.19;;;33.71;37.44
54948;BME280;41113;41.882;12.530;2022-07-23T05:35:38;101158.06;;;33.47;38.18
54948;BME280;41113;41.882;12.530;2022-07-23T05:38:04;101157.19;;;33.21;38.77
54948;BME280;41113;41.882;12.530;2022-07-23T05:40:29;101161.50;;;32.81;39.69
54948;BME280;41113;41.882;12.530;2022-07-23T05:42:56;101156.63;;;33.19;39.36
54948;BME280;41113;41.882;12.530;2022-07-23T05:45:23;101158.03;;;34.28;38.71
54948;BME280;41113;41.882;12.530;2022-07-23T05:47:48;101160.53;;;34.50;38.09
54948;BME280;41113;41.882;12.530;2022-07-23T05:50:14;101170.56;;;34.46;39.93
54948;BME280;41113;41.882;12.530;2022-07-23T05:52:40;101167.41;;;35.27;39.64
54948;BME280;41113;41.882;12.530;2022-07-23T05:55:06;101164.66;;;35.22;42.98
54948;BME280;41113;41.882;12.530;2022-07-23T05:57:32;101170.06;;;33.67;46.83
54948;BME280;41113;41.882;12.530;2022-07-23T05:59:57;101169.66;;;33.08;47.51
54948;BME280;41113;41.882;12.530;2022-07-23T06:02:22;101168.16;;;33.83;46.97
54948;BME280;41113;41.882;12.530;2022-07-23T06:04:48;101179.56;;;34.02;46.81
54948;BME280;41113;41.882;12.530;2022-07-23T06:07:13;101180.03;;;33.23;49.11
54948;BME280;41113;41.882;12.530;2022-07-23T06:09:38;101178.69;;;32.68;50.63
54948;BME280;41113;41.882;12.530;2022-07-23T06:12:04;101176.72;;;33.31;49.90
54948;BME280;41113;41.882;12.530;2022-07-23T06:14:29;101179.94;;;32.92;50.94
54948;BME280;41113;41.882;12.530;2022-07-23T06:16:54;101179.66;;;32.89;51.15
54948;BME280;41113;41.882;12.530;2022-07-23T06:19:20;101180.13;;;33.99;47.24
54948;BME280;41113;41.882;12.530;2022-07-23T06:21:46;101174.50;;;34.24;46.12
54948;BME280;41113;41.882;12.530;2022-07-23T06:24:11;101187.63;;;34.09;47.20
54948;BME280;41113;41.882;12.530;2022-07-23T06:26:37;101192.03;;;35.20;44.57
54948;BME280;41113;41.882;12.530;2022-07-23T06:29:02;101185.50;;;35.40;44.88
54948;BME280;41113;41.882;12.530;2022-07-23T06:31:27;101186.66;;;34.69;45.89
54948;BME280;41113;41.882;12.530;2022-07-23T06:33:53;101193.34;;;34.83;45.63
54948;BME280;41113;41.882;12.530;2022-07-23T06:36:18;101190.63;;;36.30;42.90
54948;BME280;41113;41.882;12.530;2022-07-23T06:38:43;101192.31;;;37.21;40.36
54948;BME280;41113;41.882;12.530;2022-07-23T06:41:09;101192.78;;;37.10;39.82
54948;BME280;41113;41.882;12.530;2022-07-23T06:43:34;101194.28;;;36.54;40.76
54948;BME280;41113;41.882;12.530;2022-07-23T06:45:59;101197.78;;;37.31;40.01
54948;BME280;41113;41.882;12.530;2022-07-23T06:48:25;101193.69;;;37.80;38.64
54948;BME280;41113;41.882;12.530;2022-07-23T06:50:50;101188.63;;;39.92;34.80
54948;BME280;41113;41.882;12.530;2022-07-23T06:53:17;101203.16;;;38.17;37.27
54948;BME280;41113;41.882;12.530;2022-07-23T06:55:42;101187.72;;;37.49;39.18
54948;BME280;41113;41.882;12.530;2022-07-23T06:58:08;101179.59;;;35.46;42.31
54948;BME280;41113;41.882;12.530;2022-07-23T07:00:35;101184.28;;;33.71;46.77
54948;BME280;41113;41.882;12.530;2022-07-23T07:03:00;101187.50;;;33.12;48.21
54948;BME280;41113;41.882;12.530;2022-07-23T07:05:25;101184.84;;;33.53;48.10
54948;BME280;41113;41.882;12.530;2022-07-23T07:07:53;101189.00;;;33.55;47.88
54948;BME280;41113;41.882;12.530;2022-07-23T07:10:18;101191.09;;;33.13;48.77
54948;BME280;41113;41.882;12.530;2022-07-23T07:12:44;101183.13;;;32.64;49.35
54948;BME280;41113;41.882;12.530;2022-07-23T07:15:09;101180.44;;;32.32;49.44
54948;BME280;41113;41.882;12.530;2022-07-23T07:17:35;101182.94;;;32.28;49.33
54948;BME280;41113;41.882;12.530;2022-07-23T07:20:00;101185.28;;;32.14;50.42
54948;BME280;41113;41.882;12.530;2022-07-23T07:22:26;101182.75;;;32.08;49.60
54948;BME280;41113;41.882;12.530;2022-07-23T07:24:51;101184.09;;;32.42;48.62
54948;BME280;41113;41.882;12.530;2022-07-23T07:27:16;101181.28;;;32.85;46.47
54948;BME280;41113;41.882;12.530;2022-07-23T07:29:42;101169.75;;;32.56;46.55
54948;BME280;41113;41.882;12.530;2022-07-23T07:32:07;101177.59;;;32.74;47.32
54948;BME280;41113;41.882;12.530;2022-07-23T07:34:32;101176.34;;;33.02;45.89
54948;BME280;41113;41.882;12.530;2022-07-23T07:36:58;101179.50;;;33.31;45.40
54948;BME280;41113;41.882;12.530;2022-07-23T07:39:23;101172.28;;;33.45;44.86
54948;BME280;41113;41.882;12.530;2022-07-23T07:41:48;101168.44;;;33.87;44.62
54948;BME280;41113;41.882;12.530;2022-07-23T07:44:14;101173.69;;;33.68;41.48
54948;BME280;41113;41.882;12.530;2022-07-23T07:46:39;101182.31;;;33.66;42.93
54948;BME280;41113;41.882;12.530;2022-07-23T07:49:04;101178.91;;;33.29;41.65
54948;BME280;41113;41.882;12.530;2022-07-23T07:51:30;101186.66;;;33.11;42.25
54948;BME280;41113;41.882;12.530;2022-07-23T07:53:55;101175.59;;;33.47;42.22
54948;BME280;41113;41.882;12.530;2022-07-23T07:56:21;101173.97;;;33.77;42.27
54948;BME280;41113;41.882;12.530;2022-07-23T07:58:46;101172.84;;;33.52;40.81
54948;BME280;41113;41.882;12.530;2022-07-23T08:01:12;101172.84;;;33.52;40.39
54948;BME280;41113;41.882;12.530;2022-07-23T08:03:37;101173.56;;;33.12;40.76
54948;BME280;41113;41.882;12.530;2022-07-23T08:06:02;101172.81;;;33.32;41.49
54948;BME280;41113;41.882;12.530;2022-07-23T08:08:28;101177.31;;;33.68;40.55
54948;BME280;41113;41.882;12.530;2022-07-23T08:10:53;101177.31;;;33.99;40.23
54948;BME280;41113;41.882;12.530;2022-07-23T08:13:18;101172.28;;;34.21;39.89
54948;BME280;41113;41.882;12.530;2022-07-23T08:15:44;101175.03;;;34.42;40.23
54948;BME280;41113;41.882;12.530;2022-07-23T08:18:09;101168.34;;;34.48;37.56
54948;BME280;41113;41.882;12.530;2022-07-23T08:20:35;101169.94;;;34.64;36.93
54948;BME280;41113;41.882;12.530;2022-07-23T08:23:04;101172.25;;;34.37;35.63
54948;BME280;41113;41.882;12.530;2022-07-23T08:25:34;101170.63;;;34.15;36.95
54948;BME280;41113;41.882;12.530;2022-07-23T08:28:00;101167.53;;;34.12;36.89
54948;BME280;41113;41.882;12.530;2022-07-23T08:30:26;101168.66;;;33.80;37.89
54948;BME280;41113;41.882;12.530;2022-07-23T08:35:17;101174.28;;;33.90;38.79
54948;BME280;41113;41.882;12.530;2022-07-23T08:37:43;101170.06;;;33.62;38.64
54948;BME280;41113;41.882;12.530;2022-07-23T08:40:09;101173.97;;;33.66;37.94
54948;BME280;41113;41.882;12.530;2022-07-23T08:42:35;101175.91;;;34.12;38.05
54948;BME280;41113;41.882;12.530;2022-07-23T08:45:00;101169.16;;;34.53;37.70
54948;BME280;41113;41.882;12.530;2022-07-23T08:47:26;101172.69;;;34.74;37.14
54948;BME280;41113;41.882;12.530;2022-07-23T08:49:52;101166.00;;;34.70;36.91
54948;BME280;41113;41.882;12.530;2022-07-23T08:52:18;101170.00;;;34.49;37.55
54948;BME280;41113;41.882;12.530;2022-07-23T08:54:43;101161.63;;;34.44;37.74
54948;BME280;41113;41.882;12.530;2022-07-23T08:57:09;101163.88;;;34.31;37.84
54948;BME280;41113;41.882;12.530;2022-07-23T08:59:34;101169.19;;;34.38;37.73
54948;BME280;41113;41.882;12.530;2022-07-23T09:01:59;101170.03;;;34.39;37.47
54948;BME280;41113;41.882;12.530;2022-07-23T09:04:25;101167.22;;;34.39;37.47
54948;BME280;41113;41.882;12.530;2022-07-23T09:06:51;101175.59;;;34.49;37.86
54948;BME280;41113;41.882;12.530;2022-07-23T09:09:17;101171.06;;;34.63;37.52
54948;BME280;41113;41.882;12.530;2022-07-23T09:11:45;101168.19;;;34.88;37.20
54948;BME280;41113;41.882;12.530;2022-07-23T09:14:11;101163.59;;;35.13;37.62
54948;BME280;41113;41.882;12.530;2022-07-23T09:16:36;101163.47;;;35.33;37.05
54948;BME280;41113;41.882;12.530;2022-07-23T09:19:05;101166.78;;;35.40;36.58
54948;BME280;41113;41.882;12.530;2022-07-23T09:21:31;101161.81;;;35.27;35.99
54948;BME280;41113;41.882;12.530;2022-07-23T09:26:27;101164.34;;;35.23;36.42
54948;BME280;41113;41.882;12.530;2022-07-23T09:29:12;101158.97;;;35.37;36.44
54948;BME280;41113;41.882;12.530;2022-07-23T09:31:42;101157.91;;;35.28;36.81
54948;BME280;41113;41.882;12.530;2022-07-23T09:34:09;101164.16;;;35.15;35.34
54948;BME280;41113;41.882;12.530;2022-07-23T09:36:35;101159.09;;;35.17;35.11
54948;BME280;41113;41.882;12.530;2022-07-23T09:39:00;101167.09;;;35.34;35.99
54948;BME280;41113;41.882;12.530;2022-07-23T09:41:26;101168.94;;;35.53;35.55
54948;BME280;41113;41.882;12.530;2022-07-23T09:43:58;101166.59;;;35.66;35.43
54948;BME280;41113;41.882;12.530;2022-07-23T09:46:31;101159.75;;;35.48;35.30
54948;BME280;41113;41.882;12.530;2022-07-23T09:48:56;101159.41;;;35.54;35.61
54948;BME280;41113;41.882;12.530;2022-07-23T09:51:22;101153.69;;;35.70;35.79
54948;BME280;41113;41.882;12.530;2022-07-23T09:53:53;101159.50;;;35.78;35.37
54948;BME280;41113;41.882;12.530;2022-07-23T09:56:19;101160.03;;;35.85;35.38
54948;BME280;41113;41.882;12.530;2022-07-23T09:58:45;101164.25;;;35.78;34.64
54948;BME280;41113;41.882;12.530;2022-07-23T10:01:14;101164.38;;;35.63;34.74
54948;BME280;41113;41.882;12.530;2022-07-23T10:03:41;101159.47;;;35.44;35.09
54948;BME280;41113;41.882;12.530;2022-07-23T10:06:07;101151.56;;;35.57;35.51
54948;BME280;41113;41.882;12.530;2022-07-23T10:08:33;101164.81;;;35.75;36.30
54948;BME280;41113;41.882;12.530;2022-07-23T10:10:59;101149.66;;;35.86;35.07
54948;BME280;41113;41.882;12.530;2022-07-23T10:13:25;101154.75;;;35.79;34.86
54948;BME280;41113;41.882;12.530;2022-07-23T10:15:54;101158.97;;;35.71;34.29
54948;BME280;41113;41.882;12.530;2022-07-23T10:18:19;101156.72;;;35.73;35.39
54948;BME280;41113;41.882;12.530;2022-07-23T10:20:45;101155.88;;;35.78;35.52
54948;BME280;41113;41.882;12.530;2022-07-23T10:31:03;101154.09;;;35.92;37.06
54948;BME280;41113;41.882;12.530;2022-07-23T10:36:17;101148.19;;;35.94;38.34
54948;BME280;41113;41.882;12.530;2022-07-23T10:41:14;101148.97;;;35.99;37.87
54948;BME280;41113;41.882;12.530;2022-07-23T10:43:40;101151.88;;;35.89;37.58
54948;BME280;41113;41.882;12.530;2022-07-23T10:46:21;101144.50;;;35.98;38.15
54948;BME280;41113;41.882;12.530;2022-07-23T10:51:36;101153.00;;;35.88;37.25
54948;BME280;41113;41.882;12.530;2022-07-23T10:54:01;101152.94;;;35.93;37.18
54948;BME280;41113;41.882;12.530;2022-07-23T10:59:10;101146.34;;;35.84;36.75
54948;BME280;41113;41.882;12.530;2022-07-23T11:01:36;101141.59;;;35.84;35.62
54948;BME280;41113;41.882;12.530;2022-07-23T11:04:02;101139.91;;;35.83;34.75
54948;BME280;41113;41.882;12.530;2022-07-23T11:09:38;101138.53;;;35.76;35.10
54948;BME280;41113;41.882;12.530;2022-07-23T11:20:17;101128.47;;;35.80;34.25
54948;BME280;41113;41.882;12.530;2022-07-23T11:25:08;101136.31;;;35.78;34.34
54948;BME280;41113;41.882;12.530;2022-07-23T11:27:42;101126.19;;;35.87;34.27
54948;BME280;41113;41.882;12.530;2022-07-23T11:30:09;101125.06;;;35.88;33.64
54948;BME280;41113;41.882;12.530;2022-07-23T11:32:38;101117.78;;;35.87;34.51
54948;BME280;41113;41.882;12.530;2022-07-23T11:35:19;101118.13;;;35.80;32.91
54948;BME280;41113;41.882;12.530;2022-07-23T11:37:46;101117.28;;;35.80;32.91
54948;BME280;41113;41.882;12.530;2022-07-23T11:40:13;101112.25;;;35.82;33.17
54948;BME280;41113;41.882;12.530;2022-07-23T11:42:39;101111.38;;;35.87;32.76
54948;BME280;41113;41.882;12.530;2022-07-23T11:45:08;101108.59;;;35.81;32.48
54948;BME280;41113;41.882;12.530;2022-07-23T11:47:33;101102.50;;;35.74;32.95
54948;BME280;41113;41.882;12.530;2022-07-23T11:50:00;101107.31;;;35.69;33.63
54948;BME280;41113;41.882;12.530;2022-07-23T11:52:26;101103.03;;;35.76;33.24
54948;BME280;41113;41.882;12.530;2022-07-23T11:54:56;101100.50;;;35.80;33.07
54948;BME280;41113;41.882;12.530;2022-07-23T11:57:29;101106.09;;;35.80;32.79
54948;BME280;41113;41.882;12.530;2022-07-23T11:59:55;101099.41;;;35.76;32.01
54948;BME280;41113;41.882;12.530;2022-07-23T12:02:21;101094.09;;;35.79;32.54
54948;BME280;41113;41.882;12.530;2022-07-23T12:04:47;101099.41;;;35.76;32.53
54948;BME280;41113;41.882;12.530;2022-07-23T12:09:47;101096.72;;;35.66;32.37
54948;BME280;41113;41.882;12.530;2022-07-23T12:12:12;101097.34;;;35.58;32.85
54948;BME280;41113;41.882;12.530;2022-07-23T12:14:46;101095.09;;;35.60;32.76
54948;BME280;41113;41.882;12.530;2022-07-23T12:17:12;101094.03;;;35.55;32.16
54948;BME280;41113;41.882;12.530;2022-07-23T12:19:37;101092.34;;;35.54;32.59
54948;BME280;41113;41.882;12.530;2022-07-23T12:22:03;101087.59;;;35.55;32.56
54948;BME280;41113;41.882;12.530;2022-07-23T12:24:29;101085.09;;;35.53;32.96
54948;BME280;41113;41.882;12.530;2022-07-23T12:27:10;101080.69;;;35.47;32.81
54948;BME280;41113;41.882;12.530;2022-07-23T12:29:36;101085.09;;;35.53;33.37
54948;BME280;41113;41.882;12.530;2022-07-23T12:32:02;101087.59;;;35.55;33.41
54948;BME280;41113;41.882;12.530;2022-07-23T12:34:27;101083.44;;;35.52;33.46
54948;BME280;41113;41.882;12.530;2022-07-23T12:36:52;101076.25;;;35.46;32.78
54948;BME280;41113;41.882;12.530;2022-07-23T12:39:36;101082.94;;;35.45;33.20
54948;BME280;41113;41.882;12.530;2022-07-23T12:42:01;101080.75;;;35.37;33.25
54948;BME280;41113;41.882;12.530;2022-07-23T12:44:26;101075.75;;;35.34;33.60
54948;BME280;41113;41.882;12.530;2022-07-23T12:46:52;101080.75;;;35.37;33.99
54948;BME280;41113;41.882;12.530;2022-07-23T12:49:27;101078.25;;;35.36;32.81
54948;BME280;41113;41.882;12.530;2022-07-23T12:51:52;101084.63;;;35.46;32.63
54948;BME280;41113;41.882;12.530;2022-07-23T12:54:18;101076.47;;;35.50;31.93
54948;BME280;41113;41.882;12.530;2022-07-23T12:56:51;101081.97;;;35.60;31.49
54948;BME280;41113;41.882;12.530;2022-07-23T12:59:16;101087.84;;;35.59;31.60
54948;BME280;41113;41.882;12.530;2022-07-23T13:01:45;101080.09;;;35.50;31.95
54948;BME280;41113;41.882;12.530;2022-07-23T13:04:18;101070.66;;;35.41;32.03
54948;BME280;41113;41.882;12.530;2022-07-23T13:09:11;101072.69;;;35.36;32.18
54948;BME280;41113;41.882;12.530;2022-07-23T13:11:40;101073.53;;;35.31;32.79
54948;BME280;41113;41.882;12.530;2022-07-23T13:14:06;101066.84;;;35.27;32.60
54948;BME280;41113;41.882;12.530;2022-07-23T13:16:31;101062.44;;;35.21;32.88